sensor_id;sensor_type;location;lat;lon;timestamp;P1;durP1;ratioP1;P2;durP2;ratioP2
51810;SDS011;52468;40.116;18.296;2023-04-25T00:00:58;5.87;;;1.53;;
51810;SDS011;52468;40.116;18.296;2023-04-25T00:03:26;5.60;;;3.00;;
51810;SDS011;52468;40.116;18.296;2023-04-25T00:05:54;2.57;;;1.27;;
51810;SDS011;52468;40.116;18.296;2023-04-25T00:08:24;8.27;;;2.13;;
51810;SDS011;52468;40.116;18.296;2023-04-25T00:10:52;2.63;;;1.53;;
51810;SDS011;52468;40.116;18.296;2023-04-25T00:13:20;1.30;;;0.90;;
51810;SDS011;52468;40.116;18.296;2023-04-25T00:15:49;4.30;;;1.57;;
51810;SDS011;52468;40.116;18.296;2023-04-25T00:18:17;3.43;;;1.33;;
51810;SDS011;52468;40.116;18.296;2023-04-25T00:20:46;3.87;;;2.53;;
51810;SDS011;52468;40.116;18.296;2023-04-25T00:23:14;4.30;;;1.20;;
51810;SDS011;52468;40.116;18.296;2023-04-25T00:25:45;3.27;;;1.67;;
51810;SDS011;52468;40.116;18.296;2023-04-25T00:28:15;7.70;;;2.30;;
51810;SDS011;52468;40.116;18.296;2023-04-25T00:30:43;7.73;;;2.27;;
51810;SDS011;52468;40.116;18.296;2023-04-25T00:33:11;3.00;;;1.63;;
51810;SDS011;52468;40.116;18.296;2023-04-25T00:35:38;5.20;;;1.40;;
51810;SDS011;52468;40.116;18.296;2023-04-25T00:38:07;3.77;;;1.70;;
51810;SDS011;52468;40.116;18.296;2023-04-25T00:40:34;5.63;;;1.77;;
51810;SDS011;52468;40.116;18.296;2023-04-25T00:43:02;3.57;;;1.60;;
51810;SDS011;52468;40.116;18.296;2023-04-25T00:45:31;3.00;;;1.53;;
51810;SDS011;52468;40.116;18.296;2023-04-25T00:47:59;3.73;;;2.20;;
51810;SDS011;52468;40.116;18.296;2023-04-25T00:50:27;3.33;;;2.60;;
51810;SDS011;52468;40.116;18.296;2023-04-25T00:52:55;4.47;;;2.17;;
51810;SDS011;52468;40.116;18.296;2023-04-25T00:55:23;7.50;;;3.00;;
51810;SDS011;52468;40.116;18.296;2023-04-25T00:57:51;5.23;;;3.03;;
51810;SDS011;52468;40.116;18.296;2023-04-25T01:00:19;3.43;;;1.90;;
51810;SDS011;52468;40.116;18.296;2023-04-25T01:02:47;7.70;;;3.40;;
51810;SDS011;52468;40.116;18.296;2023-04-25T01:05:15;6.27;;;2.07;;
51810;SDS011;52468;40.116;18.296;2023-04-25T01:07:45;5.07;;;2.30;;
51810;SDS011;52468;40.116;18.296;2023-04-25T01:10:14;8.03;;;2.43;;
51810;SDS011;52468;40.116;18.296;2023-04-25T01:12:42;4.97;;;2.50;;
51810;SDS011;52468;40.116;18.296;2023-04-25T01:15:10;5.40;;;2.47;;
51810;SDS011;52468;40.116;18.296;2023-04-25T01:17:38;5.67;;;2.57;;
51810;SDS011;52468;40.116;18.296;2023-04-25T01:20:08;4.97;;;2.50;;
51810;SDS011;52468;40.116;18.296;2023-04-25T01:22:38;7.00;;;2.27;;
51810;SDS011;52468;40.116;18.296;2023-04-25T01:25:06;7.03;;;3.73;;
51810;SDS011;52468;40.116;18.296;2023-04-25T01:27:35;8.90;;;2.53;;
51810;SDS011;52468;40.116;18.296;2023-04-25T01:30:05;3.57;;;2.40;;
51810;SDS011;52468;40.116;18.296;2023-04-25T01:32:33;5.97;;;2.67;;
51810;SDS011;52468;40.116;18.296;2023-04-25T01:35:06;6.40;;;2.30;;
51810;SDS011;52468;40.116;18.296;2023-04-25T01:37:40;7.80;;;3.20;;
51810;SDS011;52468;40.116;18.296;2023-04-25T01:40:11;10.70;;;3.67;;
51810;SDS011;52468;40.116;18.296;2023-04-25T01:42:41;8.93;;;3.23;;
51810;SDS011;52468;40.116;18.296;2023-04-25T01:45:10;6.37;;;3.40;;
51810;SDS011;52468;40.116;18.296;2023-04-25T01:47:39;12.20;;;3.43;;
51810;SDS011;52468;40.116;18.296;2023-04-25T01:50:07;7.07;;;3.57;;
51810;SDS011;52468;40.116;18.296;2023-04-25T01:52:36;5.27;;;2.87;;
51810;SDS011;52468;40.116;18.296;2023-04-25T01:55:05;9.80;;;3.23;;
51810;SDS011;52468;40.116;18.296;2023-04-25T01:57:35;7.67;;;3.63;;
51810;SDS011;52468;40.116;18.296;2023-04-25T02:00:04;5.17;;;3.57;;
51810;SDS011;52468;40.116;18.296;2023-04-25T02:02:39;5.17;;;3.60;;
51810;SDS011;52468;40.116;18.296;2023-04-25T02:05:22;3.45;;;2.03;;
51810;SDS011;52468;40.116;18.296;2023-04-25T02:07:51;5.30;;;2.77;;
51810;SDS011;52468;40.116;18.296;2023-04-25T02:10:19;4.23;;;2.40;;
51810;SDS011;52468;40.116;18.296;2023-04-25T02:13:03;15.03;;;3.83;;
51810;SDS011;52468;40.116;18.296;2023-04-25T02:15:42;3.47;;;2.37;;
51810;SDS011;52468;40.116;18.296;2023-04-25T02:18:14;6.70;;;2.70;;
51810;SDS011;52468;40.116;18.296;2023-04-25T02:20:45;3.50;;;2.00;;
51810;SDS011;52468;40.116;18.296;2023-04-25T02:23:13;4.93;;;2.37;;
51810;SDS011;52468;40.116;18.296;2023-04-25T02:25:42;5.67;;;2.57;;
51810;SDS011;52468;40.116;18.296;2023-04-25T02:28:10;7.40;;;2.83;;
51810;SDS011;52468;40.116;18.296;2023-04-25T02:30:38;3.60;;;2.20;;
51810;SDS011;52468;40.116;18.296;2023-04-25T02:33:06;8.17;;;3.20;;
51810;SDS011;52468;40.116;18.296;2023-04-25T02:35:35;10.77;;;2.50;;
51810;SDS011;52468;40.116;18.296;2023-04-25T02:38:03;6.13;;;2.40;;
51810;SDS011;52468;40.116;18.296;2023-04-25T02:40:32;5.07;;;2.30;;
51810;SDS011;52468;40.116;18.296;2023-04-25T02:43:00;7.33;;;3.13;;
51810;SDS011;52468;40.116;18.296;2023-04-25T02:45:28;6.80;;;3.00;;
51810;SDS011;52468;40.116;18.296;2023-04-25T02:47:56;6.20;;;3.67;;
51810;SDS011;52468;40.116;18.296;2023-04-25T02:50:24;5.83;;;2.73;;
51810;SDS011;52468;40.116;18.296;2023-04-25T02:52:52;14.47;;;3.30;;
51810;SDS011;52468;40.116;18.296;2023-04-25T02:55:25;4.75;;;3.25;;
51810;SDS011;52468;40.116;18.296;2023-04-25T02:57:54;5.27;;;3.00;;
51810;SDS011;52468;40.116;18.296;2023-04-25T03:00:36;12.13;;;3.27;;
51810;SDS011;52468;40.116;18.296;2023-04-25T03:03:05;8.60;;;4.30;;
51810;SDS011;52468;40.116;18.296;2023-04-25T03:05:33;5.03;;;3.03;;
51810;SDS011;52468;40.116;18.296;2023-04-25T03:08:01;6.87;;;2.53;;
51810;SDS011;52468;40.116;18.296;2023-04-25T03:10:32;7.47;;;2.20;;
51810;SDS011;52468;40.116;18.296;2023-04-25T03:13:03;7.60;;;2.93;;
51810;SDS011;52468;40.116;18.296;2023-04-25T03:15:31;6.70;;;3.37;;
51810;SDS011;52468;40.116;18.296;2023-04-25T03:17:59;9.93;;;4.60;;
51810;SDS011;52468;40.116;18.296;2023-04-25T03:20:27;9.53;;;4.17;;
51810;SDS011;52468;40.116;18.296;2023-04-25T03:22:55;8.10;;;3.17;;
51810;SDS011;52468;40.116;18.296;2023-04-25T03:25:23;5.67;;;3.10;;
51810;SDS011;52468;40.116;18.296;2023-04-25T03:27:51;10.50;;;3.33;;
51810;SDS011;52468;40.116;18.296;2023-04-25T03:30:19;6.87;;;3.07;;
51810;SDS011;52468;40.116;18.296;2023-04-25T03:32:47;5.83;;;3.67;;
51810;SDS011;52468;40.116;18.296;2023-04-25T03:35:17;4.67;;;3.43;;
51810;SDS011;52468;40.116;18.296;2023-04-25T03:37:44;5.23;;;3.87;;
51810;SDS011;52468;40.116;18.296;2023-04-25T03:40:17;9.32;;;4.72;;
51810;SDS011;52468;40.116;18.296;2023-04-25T03:43:04;8.10;;;2.73;;
51810;SDS011;52468;40.116;18.296;2023-04-25T03:45:33;11.33;;;3.37;;
51810;SDS011;52468;40.116;18.296;2023-04-25T03:48:01;8.80;;;3.53;;
51810;SDS011;52468;40.116;18.296;2023-04-25T03:50:30;9.73;;;4.43;;
51810;SDS011;52468;40.116;18.296;2023-04-25T03:52:57;7.07;;;2.73;;
51810;SDS011;52468;40.116;18.296;2023-04-25T03:55:28;8.70;;;3.27;;
51810;SDS011;52468;40.116;18.296;2023-04-25T03:57:57;8.90;;;3.30;;
51810;SDS011;52468;40.116;18.296;2023-04-25T04:00:25;8.47;;;3.60;;
51810;SDS011;52468;40.116;18.296;2023-04-25T04:02:53;11.37;;;4.80;;
51810;SDS011;52468;40.116;18.296;2023-04-25T04:05:22;7.63;;;3.50;;
51810;SDS011;52468;40.116;18.296;2023-04-25T04:07:54;7.90;;;3.30;;
51810;SDS011;52468;40.116;18.296;2023-04-25T04:10:22;10.60;;;4.23;;
51810;SDS011;52468;40.116;18.296;2023-04-25T04:12:50;9.43;;;4.13;;
51810;SDS011;52468;40.116;18.296;2023-04-25T04:15:18;9.90;;;3.57;;
51810;SDS011;52468;40.116;18.296;2023-04-25T04:17:48;9.30;;;4.30;;
51810;SDS011;52468;40.116;18.296;2023-04-25T04:20:18;10.43;;;4.30;;
51810;SDS011;52468;40.116;18.296;2023-04-25T04:22:46;11.73;;;3.57;;
51810;SDS011;52468;40.116;18.296;2023-04-25T04:25:15;8.00;;;4.37;;
51810;SDS011;52468;40.116;18.296;2023-04-25T04:28:06;9.87;;;4.13;;
51810;SDS011;52468;40.116;18.296;2023-04-25T04:30:48;15.13;;;5.90;;
51810;SDS011;52468;40.116;18.296;2023-04-25T04:33:18;9.73;;;5.03;;
51810;SDS011;52468;40.116;18.296;2023-04-25T04:35:51;10.02;;;4.82;;
51810;SDS011;52468;40.116;18.296;2023-04-25T04:38:21;8.80;;;4.30;;
51810;SDS011;52468;40.116;18.296;2023-04-25T04:40:51;9.73;;;4.83;;
51810;SDS011;52468;40.116;18.296;2023-04-25T04:43:45;6.70;;;3.40;;
51810;SDS011;52468;40.116;18.296;2023-04-25T04:46:43;8.83;;;3.50;;
51810;SDS011;52468;40.116;18.296;2023-04-25T04:49:23;4.77;;;2.90;;
51810;SDS011;52468;40.116;18.296;2023-04-25T04:52:11;7.13;;;3.00;;
51810;SDS011;52468;40.116;18.296;2023-04-25T04:54:54;8.40;;;3.55;;
51810;SDS011;52468;40.116;18.296;2023-04-25T04:57:51;8.80;;;3.63;;
51810;SDS011;52468;40.116;18.296;2023-04-25T05:00:32;8.37;;;3.90;;
51810;SDS011;52468;40.116;18.296;2023-04-25T05:03:26;8.67;;;4.33;;
51810;SDS011;52468;40.116;18.296;2023-04-25T05:06:32;10.03;;;4.00;;
51810;SDS011;52468;40.116;18.296;2023-04-25T05:09:26;5.57;;;2.83;;
51810;SDS011;52468;40.116;18.296;2023-04-25T05:12:32;5.63;;;2.73;;
51810;SDS011;52468;40.116;18.296;2023-04-25T05:15:07;13.10;;;3.27;;
51810;SDS011;52468;40.116;18.296;2023-04-25T05:17:56;5.33;;;2.90;;
51810;SDS011;52468;40.116;18.296;2023-04-25T05:20:50;5.70;;;2.33;;
51810;SDS011;52468;40.116;18.296;2023-04-25T05:23:36;9.37;;;2.57;;
51810;SDS011;52468;40.116;18.296;2023-04-25T05:26:12;8.90;;;2.67;;
51810;SDS011;52468;40.116;18.296;2023-04-25T05:28:52;3.57;;;2.70;;
51810;SDS011;52468;40.116;18.296;2023-04-25T05:31:52;4.73;;;2.90;;
51810;SDS011;52468;40.116;18.296;2023-04-25T05:34:20;6.97;;;2.80;;
51810;SDS011;52468;40.116;18.296;2023-04-25T05:37:00;5.90;;;2.10;;
51810;SDS011;52468;40.116;18.296;2023-04-25T05:39:29;9.17;;;2.30;;
51810;SDS011;52468;40.116;18.296;2023-04-25T05:42:20;5.93;;;1.63;;
51810;SDS011;52468;40.116;18.296;2023-04-25T05:45:15;4.87;;;1.67;;
51810;SDS011;52468;40.116;18.296;2023-04-25T05:48:04;3.90;;;2.30;;
51810;SDS011;52468;40.116;18.296;2023-04-25T05:51:05;8.17;;;1.80;;
51810;SDS011;52468;40.116;18.296;2023-04-25T05:53:51;8.50;;;2.37;;
51810;SDS011;52468;40.116;18.296;2023-04-25T05:56:19;2.53;;;1.70;;
51810;SDS011;52468;40.116;18.296;2023-04-25T05:58:50;2.90;;;1.47;;
51810;SDS011;52468;40.116;18.296;2023-04-25T06:01:18;2.97;;;1.20;;
51810;SDS011;52468;40.116;18.296;2023-04-25T06:03:46;3.50;;;1.60;;
51810;SDS011;52468;40.116;18.296;2023-04-25T06:06:16;8.07;;;2.33;;
51810;SDS011;52468;40.116;18.296;2023-04-25T06:08:46;3.00;;;1.60;;
51810;SDS011;52468;40.116;18.296;2023-04-25T06:11:13;3.67;;;1.83;;
51810;SDS011;52468;40.116;18.296;2023-04-25T06:13:41;4.20;;;1.63;;
51810;SDS011;52468;40.116;18.296;2023-04-25T06:16:11;5.70;;;2.80;;
51810;SDS011;52468;40.116;18.296;2023-04-25T06:18:40;4.53;;;2.43;;
51810;SDS011;52468;40.116;18.296;2023-04-25T06:21:08;3.70;;;1.93;;
51810;SDS011;52468;40.116;18.296;2023-04-25T06:23:37;3.77;;;1.87;;
51810;SDS011;52468;40.116;18.296;2023-04-25T06:26:07;5.20;;;1.40;;
51810;SDS011;52468;40.116;18.296;2023-04-25T06:28:37;2.27;;;1.30;;
51810;SDS011;52468;40.116;18.296;2023-04-25T06:31:05;1.80;;;1.13;;
51810;SDS011;52468;40.116;18.296;2023-04-25T06:33:34;1.17;;;0.80;;
51810;SDS011;52468;40.116;18.296;2023-04-25T06:36:03;4.97;;;1.23;;
51810;SDS011;52468;40.116;18.296;2023-04-25T06:38:32;4.63;;;2.03;;
51810;SDS011;52468;40.116;18.296;2023-04-25T06:41:00;1.57;;;1.17;;
51810;SDS011;52468;40.116;18.296;2023-04-25T06:43:31;3.13;;;1.13;;
51810;SDS011;52468;40.116;18.296;2023-04-25T06:46:23;5.83;;;1.80;;
51810;SDS011;52468;40.116;18.296;2023-04-25T06:48:53;4.10;;;2.40;;
51810;SDS011;52468;40.116;18.296;2023-04-25T06:51:21;2.67;;;1.80;;
51810;SDS011;52468;40.116;18.296;2023-04-25T06:53:51;2.97;;;1.83;;
51810;SDS011;52468;40.116;18.296;2023-04-25T06:56:28;3.33;;;1.60;;
51810;SDS011;52468;40.116;18.296;2023-04-25T06:59:12;2.67;;;1.23;;
51810;SDS011;52468;40.116;18.296;2023-04-25T07:01:40;4.87;;;1.80;;
51810;SDS011;52468;40.116;18.296;2023-04-25T07:04:14;3.13;;;1.17;;
51810;SDS011;52468;40.116;18.296;2023-04-25T07:06:48;3.73;;;1.70;;
51810;SDS011;52468;40.116;18.296;2023-04-25T07:09:20;3.45;;;1.85;;
51810;SDS011;52468;40.116;18.296;2023-04-25T07:11:49;2.27;;;1.20;;
51810;SDS011;52468;40.116;18.296;2023-04-25T07:14:17;6.60;;;1.60;;
51810;SDS011;52468;40.116;18.296;2023-04-25T07:16:45;2.47;;;1.20;;
51810;SDS011;52468;40.116;18.296;2023-04-25T07:19:13;1.50;;;0.73;;
51810;SDS011;52468;40.116;18.296;2023-04-25T07:21:41;2.07;;;0.83;;
51810;SDS011;52468;40.116;18.296;2023-04-25T07:24:10;1.53;;;0.93;;
51810;SDS011;52468;40.116;18.296;2023-04-25T07:26:43;7.47;;;1.13;;
51810;SDS011;52468;40.116;18.296;2023-04-25T07:29:35;3.03;;;1.07;;
51810;SDS011;52468;40.116;18.296;2023-04-25T07:32:04;5.13;;;1.80;;
51810;SDS011;52468;40.116;18.296;2023-04-25T07:34:32;2.53;;;1.93;;
51810;SDS011;52468;40.116;18.296;2023-04-25T07:37:04;4.13;;;1.10;;
51810;SDS011;52468;40.116;18.296;2023-04-25T07:39:41;2.70;;;1.33;;
51810;SDS011;52468;40.116;18.296;2023-04-25T07:42:10;2.77;;;1.17;;
51810;SDS011;52468;40.116;18.296;2023-04-25T07:44:41;1.93;;;0.97;;
51810;SDS011;52468;40.116;18.296;2023-04-25T07:47:11;3.93;;;1.27;;
51810;SDS011;52468;40.116;18.296;2023-04-25T07:49:40;3.70;;;1.70;;
51810;SDS011;52468;40.116;18.296;2023-04-25T07:52:08;3.07;;;1.23;;
51810;SDS011;52468;40.116;18.296;2023-04-25T07:54:40;2.00;;;1.30;;
51810;SDS011;52468;40.116;18.296;2023-04-25T07:57:15;3.07;;;1.30;;
51810;SDS011;52468;40.116;18.296;2023-04-25T07:59:45;5.90;;;1.60;;
51810;SDS011;52468;40.116;18.296;2023-04-25T08:02:13;1.80;;;1.00;;
51810;SDS011;52468;40.116;18.296;2023-04-25T08:04:41;3.30;;;1.40;;
51810;SDS011;52468;40.116;18.296;2023-04-25T08:07:12;1.07;;;0.97;;
51810;SDS011;52468;40.116;18.296;2023-04-25T08:09:51;4.73;;;1.87;;
51810;SDS011;52468;40.116;18.296;2023-04-25T08:12:25;1.43;;;1.17;;
51810;SDS011;52468;40.116;18.296;2023-04-25T08:14:53;5.63;;;1.33;;
51810;SDS011;52468;40.116;18.296;2023-04-25T08:17:24;4.97;;;1.53;;
51810;SDS011;52468;40.116;18.296;2023-04-25T08:19:52;2.40;;;1.50;;
51810;SDS011;52468;40.116;18.296;2023-04-25T08:22:29;4.70;;;0.90;;
51810;SDS011;52468;40.116;18.296;2023-04-25T08:25:15;2.17;;;0.93;;
51810;SDS011;52468;40.116;18.296;2023-04-25T08:27:43;4.40;;;1.97;;
51810;SDS011;52468;40.116;18.296;2023-04-25T08:30:11;1.57;;;1.00;;
51810;SDS011;52468;40.116;18.296;2023-04-25T08:32:41;1.47;;;1.27;;
51810;SDS011;52468;40.116;18.296;2023-04-25T08:35:38;3.33;;;1.00;;
51810;SDS011;52468;40.116;18.296;2023-04-25T08:38:06;2.37;;;0.93;;
51810;SDS011;52468;40.116;18.296;2023-04-25T08:40:35;3.27;;;1.30;;
51810;SDS011;52468;40.116;18.296;2023-04-25T08:43:12;2.43;;;0.93;;
51810;SDS011;52468;40.116;18.296;2023-04-25T08:45:42;1.90;;;1.17;;
51810;SDS011;52468;40.116;18.296;2023-04-25T08:48:16;2.97;;;0.90;;
51810;SDS011;52468;40.116;18.296;2023-04-25T08:53:16;2.33;;;1.93;;
51810;SDS011;52468;40.116;18.296;2023-04-25T08:55:47;3.77;;;1.10;;
51810;SDS011;52468;40.116;18.296;2023-04-25T08:58:17;3.17;;;1.30;;
51810;SDS011;52468;40.116;18.296;2023-04-25T09:00:46;4.40;;;1.23;;
51810;SDS011;52468;40.116;18.296;2023-04-25T09:03:16;3.00;;;1.20;;
51810;SDS011;52468;40.116;18.296;2023-04-25T09:05:47;2.67;;;1.27;;
51810;SDS011;52468;40.116;18.296;2023-04-25T09:08:15;5.47;;;1.93;;
51810;SDS011;52468;40.116;18.296;2023-04-25T09:10:44;3.27;;;1.20;;
51810;SDS011;52468;40.116;18.296;2023-04-25T09:13:13;2.30;;;1.17;;
51810;SDS011;52468;40.116;18.296;2023-04-25T09:16:08;3.47;;;1.83;;
51810;SDS011;52468;40.116;18.296;2023-04-25T09:18:48;5.03;;;1.63;;
51810;SDS011;52468;40.116;18.296;2023-04-25T09:21:17;1.33;;;1.07;;
51810;SDS011;52468;40.116;18.296;2023-04-25T09:23:50;1.40;;;0.90;;
51810;SDS011;52468;40.116;18.296;2023-04-25T09:26:20;5.13;;;1.10;;
51810;SDS011;52468;40.116;18.296;2023-04-25T09:28:49;1.53;;;0.80;;
51810;SDS011;52468;40.116;18.296;2023-04-25T09:31:35;2.80;;;0.97;;
51810;SDS011;52468;40.116;18.296;2023-04-25T09:34:04;1.43;;;0.73;;
51810;SDS011;52468;40.116;18.296;2023-04-25T09:36:41;4.17;;;1.50;;
51810;SDS011;52468;40.116;18.296;2023-04-25T09:39:36;2.27;;;1.20;;
51810;SDS011;52468;40.116;18.296;2023-04-25T09:42:12;2.50;;;1.00;;
51810;SDS011;52468;40.116;18.296;2023-04-25T09:44:45;2.63;;;1.20;;
51810;SDS011;52468;40.116;18.296;2023-04-25T09:47:14;3.90;;;1.58;;
51810;SDS011;52468;40.116;18.296;2023-04-25T09:49:45;2.03;;;0.97;;
51810;SDS011;52468;40.116;18.296;2023-04-25T09:52:15;1.27;;;0.90;;
51810;SDS011;52468;40.116;18.296;2023-04-25T09:55:00;4.20;;;1.13;;
51810;SDS011;52468;40.116;18.296;2023-04-25T09:57:32;4.13;;;1.40;;
51810;SDS011;52468;40.116;18.296;2023-04-25T10:00:01;4.17;;;1.17;;
51810;SDS011;52468;40.116;18.296;2023-04-25T10:02:41;5.83;;;1.20;;
51810;SDS011;52468;40.116;18.296;2023-04-25T10:05:26;2.23;;;1.13;;
51810;SDS011;52468;40.116;18.296;2023-04-25T10:07:55;6.00;;;2.10;;
51810;SDS011;52468;40.116;18.296;2023-04-25T10:10:25;3.07;;;1.27;;
51810;SDS011;52468;40.116;18.296;2023-04-25T10:12:56;2.73;;;1.00;;
51810;SDS011;52468;40.116;18.296;2023-04-25T10:15:24;4.53;;;1.40;;
51810;SDS011;52468;40.116;18.296;2023-04-25T10:17:52;2.97;;;1.17;;
51810;SDS011;52468;40.116;18.296;2023-04-25T10:20:21;3.53;;;1.90;;
51810;SDS011;52468;40.116;18.296;2023-04-25T10:22:49;1.70;;;1.17;;
51810;SDS011;52468;40.116;18.296;2023-04-25T10:25:23;1.37;;;1.10;;
51810;SDS011;52468;40.116;18.296;2023-04-25T10:27:51;3.57;;;1.20;;
51810;SDS011;52468;40.116;18.296;2023-04-25T10:30:20;5.43;;;2.37;;
51810;SDS011;52468;40.116;18.296;2023-04-25T10:32:48;1.40;;;1.10;;
51810;SDS011;52468;40.116;18.296;2023-04-25T10:35:18;2.60;;;0.80;;
51810;SDS011;52468;40.116;18.296;2023-04-25T10:38:09;2.83;;;1.17;;
51810;SDS011;52468;40.116;18.296;2023-04-25T10:40:39;3.20;;;1.10;;
51810;SDS011;52468;40.116;18.296;2023-04-25T10:45:59;3.33;;;1.00;;
51810;SDS011;52468;40.116;18.296;2023-04-25T10:48:28;4.23;;;1.47;;
51810;SDS011;52468;40.116;18.296;2023-04-25T10:51:08;1.40;;;1.07;;
51810;SDS011;52468;40.116;18.296;2023-04-25T10:53:36;1.90;;;1.13;;
51810;SDS011;52468;40.116;18.296;2023-04-25T10:56:16;2.30;;;1.23;;
51810;SDS011;52468;40.116;18.296;2023-04-25T10:58:46;2.53;;;1.20;;
51810;SDS011;52468;40.116;18.296;2023-04-25T11:01:15;2.83;;;0.87;;
51810;SDS011;52468;40.116;18.296;2023-04-25T11:03:47;1.05;;;0.80;;
51810;SDS011;52468;40.116;18.296;2023-04-25T11:06:27;2.03;;;1.37;;
51810;SDS011;52468;40.116;18.296;2023-04-25T11:09:08;1.17;;;0.90;;
51810;SDS011;52468;40.116;18.296;2023-04-25T11:11:41;7.83;;;1.90;;
51810;SDS011;52468;40.116;18.296;2023-04-25T11:14:09;1.47;;;1.23;;
51810;SDS011;52468;40.116;18.296;2023-04-25T11:16:37;6.43;;;1.57;;
51810;SDS011;52468;40.116;18.296;2023-04-25T11:19:05;3.53;;;1.13;;
51810;SDS011;52468;40.116;18.296;2023-04-25T11:21:33;2.83;;;1.10;;
51810;SDS011;52468;40.116;18.296;2023-04-25T11:24:00;3.77;;;1.00;;
51810;SDS011;52468;40.116;18.296;2023-04-25T11:26:28;1.57;;;0.77;;
51810;SDS011;52468;40.116;18.296;2023-04-25T11:28:58;1.80;;;0.90;;
51810;SDS011;52468;40.116;18.296;2023-04-25T11:31:29;1.57;;;0.70;;
51810;SDS011;52468;40.116;18.296;2023-04-25T11:33:57;4.60;;;1.23;;
51810;SDS011;52468;40.116;18.296;2023-04-25T11:36:26;2.77;;;1.00;;
51810;SDS011;52468;40.116;18.296;2023-04-25T11:38:53;2.87;;;1.70;;
51810;SDS011;52468;40.116;18.296;2023-04-25T11:41:21;2.83;;;1.60;;
51810;SDS011;52468;40.116;18.296;2023-04-25T11:43:49;2.63;;;0.63;;
51810;SDS011;52468;40.116;18.296;2023-04-25T11:46:19;5.10;;;0.87;;
51810;SDS011;52468;40.116;18.296;2023-04-25T11:48:47;4.00;;;0.97;;
51810;SDS011;52468;40.116;18.296;2023-04-25T11:51:17;2.27;;;1.70;;
51810;SDS011;52468;40.116;18.296;2023-04-25T11:53:45;10.17;;;1.87;;
51810;SDS011;52468;40.116;18.296;2023-04-25T11:56:13;3.07;;;0.70;;
51810;SDS011;52468;40.116;18.296;2023-04-25T12:01:31;2.27;;;0.90;;
51810;SDS011;52468;40.116;18.296;2023-04-25T12:04:16;3.93;;;1.10;;
51810;SDS011;52468;40.116;18.296;2023-04-25T12:06:49;3.27;;;1.50;;
51810;SDS011;52468;40.116;18.296;2023-04-25T12:09:31;3.33;;;1.23;;
51810;SDS011;52468;40.116;18.296;2023-04-25T12:12:00;1.53;;;1.10;;
51810;SDS011;52468;40.116;18.296;2023-04-25T12:14:33;3.47;;;1.17;;
51810;SDS011;52468;40.116;18.296;2023-04-25T12:17:03;3.03;;;1.10;;
51810;SDS011;52468;40.116;18.296;2023-04-25T12:19:36;3.72;;;1.05;;
51810;SDS011;52468;40.116;18.296;2023-04-25T12:22:25;1.63;;;1.15;;
51810;SDS011;52468;40.116;18.296;2023-04-25T12:24:53;1.30;;;1.07;;
51810;SDS011;52468;40.116;18.296;2023-04-25T12:27:21;1.93;;;0.80;;
51810;SDS011;52468;40.116;18.296;2023-04-25T12:29:52;5.23;;;1.47;;
51810;SDS011;52468;40.116;18.296;2023-04-25T12:32:21;5.90;;;1.27;;
51810;SDS011;52468;40.116;18.296;2023-04-25T12:34:49;2.73;;;1.00;;
51810;SDS011;52468;40.116;18.296;2023-04-25T12:37:17;3.90;;;1.33;;
51810;SDS011;52468;40.116;18.296;2023-04-25T12:39:45;2.27;;;1.20;;
51810;SDS011;52468;40.116;18.296;2023-04-25T12:42:13;3.17;;;1.33;;
51810;SDS011;52468;40.116;18.296;2023-04-25T12:44:41;2.53;;;1.10;;
51810;SDS011;52468;40.116;18.296;2023-04-25T12:47:09;2.17;;;1.33;;
51810;SDS011;52468;40.116;18.296;2023-04-25T12:49:37;4.03;;;1.50;;
51810;SDS011;52468;40.116;18.296;2023-04-25T12:52:05;3.77;;;1.10;;
51810;SDS011;52468;40.116;18.296;2023-04-25T12:54:33;3.53;;;1.60;;
51810;SDS011;52468;40.116;18.296;2023-04-25T12:57:01;5.07;;;1.20;;
51810;SDS011;52468;40.116;18.296;2023-04-25T12:59:30;4.77;;;1.50;;
51810;SDS011;52468;40.116;18.296;2023-04-25T13:01:57;2.17;;;1.23;;
51810;SDS011;52468;40.116;18.296;2023-04-25T13:04:25;3.60;;;0.97;;
51810;SDS011;52468;40.116;18.296;2023-04-25T13:06:53;5.80;;;1.60;;
51810;SDS011;52468;40.116;18.296;2023-04-25T13:09:21;5.13;;;1.90;;
51810;SDS011;52468;40.116;18.296;2023-04-25T13:11:49;3.63;;;2.00;;
51810;SDS011;52468;40.116;18.296;2023-04-25T13:14:17;4.47;;;2.40;;
51810;SDS011;52468;40.116;18.296;2023-04-25T13:16:44;2.07;;;1.40;;
51810;SDS011;52468;40.116;18.296;2023-04-25T13:19:12;8.30;;;2.17;;
51810;SDS011;52468;40.116;18.296;2023-04-25T13:21:40;3.40;;;2.20;;
51810;SDS011;52468;40.116;18.296;2023-04-25T13:24:08;2.73;;;1.30;;
51810;SDS011;52468;40.116;18.296;2023-04-25T13:26:36;5.07;;;1.63;;
51810;SDS011;52468;40.116;18.296;2023-04-25T13:29:03;3.23;;;1.30;;
51810;SDS011;52468;40.116;18.296;2023-04-25T13:31:31;3.67;;;1.60;;
51810;SDS011;52468;40.116;18.296;2023-04-25T13:33:59;3.90;;;1.43;;
51810;SDS011;52468;40.116;18.296;2023-04-25T13:36:27;1.30;;;1.03;;
51810;SDS011;52468;40.116;18.296;2023-04-25T13:38:55;4.17;;;1.23;;
51810;SDS011;52468;40.116;18.296;2023-04-25T13:41:22;2.27;;;1.47;;
51810;SDS011;52468;40.116;18.296;2023-04-25T13:43:50;3.20;;;1.43;;
51810;SDS011;52468;40.116;18.296;2023-04-25T13:46:18;3.97;;;1.10;;
51810;SDS011;52468;40.116;18.296;2023-04-25T13:48:56;4.67;;;2.13;;
51810;SDS011;52468;40.116;18.296;2023-04-25T13:51:26;5.33;;;1.40;;
51810;SDS011;52468;40.116;18.296;2023-04-25T13:53:53;4.53;;;1.27;;
51810;SDS011;52468;40.116;18.296;2023-04-25T13:56:21;4.47;;;1.58;;
51810;SDS011;52468;40.116;18.296;2023-04-25T13:58:50;3.00;;;1.30;;
51810;SDS011;52468;40.116;18.296;2023-04-25T14:01:18;3.42;;;1.17;;
51810;SDS011;52468;40.116;18.296;2023-04-25T14:03:48;4.75;;;1.90;;
51810;SDS011;52468;40.116;18.296;2023-04-25T14:06:16;4.05;;;1.77;;
51810;SDS011;52468;40.116;18.296;2023-04-25T14:08:50;2.72;;;1.40;;
51810;SDS011;52468;40.116;18.296;2023-04-25T14:11:18;2.10;;;1.20;;
51810;SDS011;52468;40.116;18.296;2023-04-25T14:13:46;4.68;;;1.13;;
51810;SDS011;52468;40.116;18.296;2023-04-25T14:16:16;3.17;;;1.33;;
51810;SDS011;52468;40.116;18.296;2023-04-25T14:18:43;2.17;;;1.15;;
51810;SDS011;52468;40.116;18.296;2023-04-25T14:21:11;4.68;;;1.50;;
51810;SDS011;52468;40.116;18.296;2023-04-25T14:23:39;2.88;;;1.05;;
51810;SDS011;52468;40.116;18.296;2023-04-25T14:26:07;1.90;;;0.98;;
51810;SDS011;52468;40.116;18.296;2023-04-25T14:28:39;5.35;;;1.55;;
51810;SDS011;52468;40.116;18.296;2023-04-25T14:31:06;2.90;;;1.50;;
51810;SDS011;52468;40.116;18.296;2023-04-25T14:33:34;2.25;;;0.85;;
51810;SDS011;52468;40.116;18.296;2023-04-25T14:36:02;1.98;;;1.17;;
51810;SDS011;52468;40.116;18.296;2023-04-25T14:38:30;3.25;;;1.50;;
51810;SDS011;52468;40.116;18.296;2023-04-25T14:40:58;3.42;;;1.73;;
51810;SDS011;52468;40.116;18.296;2023-04-25T14:43:26;4.53;;;2.55;;
51810;SDS011;52468;40.116;18.296;2023-04-25T14:45:53;3.15;;;1.13;;
51810;SDS011;52468;40.116;18.296;2023-04-25T14:48:23;6.30;;;1.88;;
51810;SDS011;52468;40.116;18.296;2023-04-25T14:50:51;3.25;;;1.67;;
51810;SDS011;52468;40.116;18.296;2023-04-25T14:53:19;3.88;;;1.15;;
51810;SDS011;52468;40.116;18.296;2023-04-25T14:55:47;2.00;;;1.15;;
51810;SDS011;52468;40.116;18.296;2023-04-25T14:58:15;4.82;;;1.63;;
51810;SDS011;52468;40.116;18.296;2023-04-25T15:00:43;1.98;;;1.10;;
51810;SDS011;52468;40.116;18.296;2023-04-25T15:03:12;3.88;;;1.40;;
51810;SDS011;52468;40.116;18.296;2023-04-25T15:05:40;5.10;;;2.37;;
51810;SDS011;52468;40.116;18.296;2023-04-25T15:08:08;2.80;;;1.60;;